Time;durP1;ratioP1;P1;durP2;ratioP2;P2;SDS_P1;SDS_P2;PMS_P1;PMS_P2;Temp;Humidity;BMP_temperature;BMP_pressure;BME280_temperature;BME280_humidity;BME280_pressure;Samples;Min_cycle;Max_cycle;Signal;HPM_P1;HPM_P2
2023/10/03 00:00:32;;;;;;;;;;;23.10;73.30;;;23.33;46.13;98780.00;5027538;27;115010;-84
2023/10/03 00:03:04;;;;;;;;;;;23.10;73.40;;;23.30;46.31;98775.97;5029352;27;124278;-85
2023/10/03 00:05:33;;;;;;;;;;;23.00;73.40;;;23.28;46.21;98772.72;5030517;27;123964;-85
2023/10/03 00:08:03;;;;;;;;;;;23.00;73.50;;;23.26;46.49;98766.66;5032873;27;114689;-84
2023/10/03 00:10:33;;;;;;;;;;;23.00;73.70;;;23.22;46.64;98765.88;5028696;27;113543;-85
2023/10/03 00:13:00;;;;;;;;;;;23.00;73.80;;;23.21;46.50;98769.88;5031847;27;123923;-85
2023/10/03 00:15:28;;;;;;;;;;;23.00;74.00;;;23.17;46.58;98766.25;5027799;27;124096;-85
2023/10/03 00:17:55;;;;;;;;;;;22.90;74.10;;;23.16;46.50;98767.47;5030488;27;114591;-85
2023/10/03 00:20:22;;;;;;;;;;;22.90;74.30;;;23.12;46.63;98763.81;5029103;27;113806;-84
2023/10/03 00:22:50;;;;;;;;;;;22.90;74.40;;;23.09;46.82;98764.63;5020930;27;123918;-85
2023/10/03 00:25:23;;;;;;;;;;;22.90;74.70;;;23.07;46.99;98767.03;5041086;27;124322;-85
2023/10/03 00:27:55;;;;;;;;;;;22.80;74.80;;;23.03;46.84;98761.38;5061179;27;114459;-85
2023/10/03 00:30:26;;;;;;;;;;;22.80;75.00;;;23.01;47.02;98760.16;5061452;27;113713;-85
2023/10/03 00:32:53;;;;;;;;;;;22.80;75.10;;;22.97;47.29;98759.34;5025193;27;123363;-86
2023/10/03 00:35:20;;;;;;;;;;;22.70;75.20;;;22.92;47.03;98761.31;5022385;27;123933;-85
2023/10/03 00:37:53;;;;;;;;;;;22.70;75.40;;;22.88;47.32;98754.84;5062690;27;114711;-85
2023/10/03 00:42:58;;;;;;;;;;;22.60;75.30;;;22.76;47.39;98763.66;5030946;27;124826;-85
2023/10/03 00:45:31;;;;;;;;;;;22.60;75.40;;;22.71;47.30;98750.75;5028390;27;124171;-85
2023/10/03 00:48:02;;;;;;;;;;;22.50;75.40;;;22.67;47.39;98743.47;5011768;28;114477;-85
2023/10/03 00:50:34;;;;;;;;;;;22.40;75.40;;;22.64;47.29;98738.66;5020218;27;114106;-85
2023/10/03 00:53:10;;;;;;;;;;;22.50;75.60;;;22.61;47.58;98739.44;5056040;27;124106;-85
2023/10/03 00:55:38;;;;;;;;;;;22.40;75.70;;;22.56;47.48;98749.06;5028100;27;123896;-85
2023/10/03 01:00:43;;;;;;;;;;;22.40;76.50;;;22.52;47.97;98733.38;5029986;27;113064;-85
2023/10/03 01:03:37;;;;;;;;;;;22.30;76.60;;;22.45;48.15;98732.09;5027764;27;124111;-86
2023/10/03 01:06:07;;;;;;;;;;;22.30;76.80;;;22.43;47.97;98737.34;5062650;27;124348;-85
2023/10/03 01:08:46;;;;;;;;;;;22.20;76.80;;;22.41;47.88;98736.94;5028593;27;114263;-86
2023/10/03 01:11:24;;;;;;;;;;;22.20;77.00;;;22.40;48.24;98735.28;5028488;27;113567;-85
2023/10/03 01:14:00;;;;;;;;;;;22.20;77.00;;;22.37;48.19;98732.47;5014325;27;124011;-85
2023/10/03 01:16:37;;;;;;;;;;;22.20;77.10;;;22.34;48.22;98734.06;5033272;27;124056;-85
2023/10/03 01:19:25;;;;;;;;;;;22.10;77.20;;;22.32;48.30;98721.56;5053535;27;114186;-85
2023/10/03 01:21:52;;;;;;;;;;;24.00;79.20;;;22.29;48.23;98723.16;5041552;27;113714;-87
2023/10/03 01:24:24;;;;;;;;;;;22.10;77.60;;;22.27;48.63;98720.78;5030288;27;124348;-87
2023/10/03 01:26:53;;;;;;;;;;;22.00;77.80;;;22.25;48.65;98716.72;5030651;27;123762;-85
2023/10/03 01:29:23;;;;;;;;;;;22.00;78.10;;;22.23;48.73;98714.28;5013575;27;115050;-85
2023/10/03 01:31:51;;;;;;;;;;;22.00;78.30;;;22.21;48.62;98715.88;5017338;27;112934;-85
2023/10/03 01:34:20;;;;;;;;;;;22.00;78.60;;;22.19;49.03;98718.28;5012888;27;124926;-84
2023/10/03 01:36:48;;;;;;;;;;;22.00;78.80;;;22.17;49.05;98720.66;5034864;27;123401;-84
2023/10/03 01:39:14;;;;;;;;;;;21.90;79.20;;;22.16;49.16;98716.22;5048599;27;115991;-85
2023/10/03 01:41:42;;;;;;;;;;;23.40;80.70;;;22.14;49.47;98711.00;5031763;27;114711;-84
2023/10/03 01:44:08;;;;;;;;;;;21.90;79.70;;;22.14;49.37;98715.81;5061043;27;124371;-85
2023/10/03 01:46:35;;;;;;;;;;;21.90;79.90;;;22.14;49.54;98705.38;5027990;27;123791;-85
2023/10/03 01:49:02;;;;;;;;;;;21.90;80.10;;;22.15;49.46;98700.56;5028251;27;114578;-84
2023/10/03 01:51:28;;;;;;;;;;;21.90;80.20;;;22.15;49.43;98700.56;5022565;27;113813;-84
2023/10/03 01:53:57;;;;;;;;;;;21.90;80.30;;;22.15;49.61;98694.91;5041613;27;124587;-85
2023/10/03 01:56:25;;;;;;;;;;;21.90;80.50;;;22.13;49.89;98691.69;5042427;27;123849;-85
2023/10/03 01:58:51;;;;;;;;;;;21.90;80.70;;;22.12;49.53;98690.09;5046679;27;113865;-85
2023/10/03 02:01:17;;;;;;;;;;;21.80;80.80;;;22.11;49.62;98685.63;5031430;27;113835;-85
2023/10/03 02:03:45;;;;;;;;;;;21.80;80.90;;;22.08;49.82;98689.25;5028202;27;124699;-84
2023/10/03 02:06:11;;;;;;;;;;;21.80;81.00;;;22.05;49.82;98680.38;5029205;27;123859;-85
2023/10/03 02:08:37;;;;;;;;;;;21.80;81.30;;;22.04;50.00;98684.41;5027586;27;113649;-85
2023/10/03 02:11:05;;;;;;;;;;;21.80;81.40;;;22.03;49.77;98682.78;5029202;28;114336;-85
2023/10/03 02:13:34;;;;;;;;;;;21.80;81.40;;;22.02;50.02;98677.56;5031796;27;123433;-85
2023/10/03 02:16:00;;;;;;;;;;;21.70;81.30;;;21.98;49.89;98677.53;5028263;27;124105;-85
2023/10/03 02:18:27;;;;;;;;;;;21.70;81.30;;;21.95;49.83;98685.94;5028180;28;114528;-85
2023/10/03 02:21:01;;;;;;;;;;;21.70;81.20;;;21.87;49.68;98679.47;5067041;27;113501;-84
2023/10/03 02:23:32;;;;;;;;;;;21.60;81.10;;;21.81;49.60;98675.41;5036511;27;124745;-85
2023/10/03 02:26:11;;;;;;;;;;;21.60;81.00;;;21.75;49.75;98671.34;5024922;27;123079;-85
2023/10/03 02:28:38;;;;;;;;;;;21.50;81.00;;;21.71;50.05;98670.50;5028446;27;115491;-85
2023/10/03 02:31:07;;;;;;;;;;;21.50;81.00;;;21.68;49.94;98671.28;5043666;27;114944;-84
2023/10/03 02:33:44;;;;;;;;;;;21.50;81.20;;;21.64;49.90;98668.44;5014372;28;123549;-84
2023/10/03 02:36:10;;;;;;;;;;;21.40;81.20;;;21.57;50.15;98666.41;5016116;27;122485;-85
2023/10/03 02:38:37;;;;;;;;;;;21.40;81.50;;;21.50;50.22;98655.09;5014411;28;113538;-85
2023/10/03 02:41:07;;;;;;;;;;;21.40;81.50;;;21.48;50.09;98651.06;5026432;27;113748;-86
2023/10/03 02:43:35;;;;;;;;;;;21.30;81.70;;;21.40;50.65;98650.97;5035839;27;124228;-86
2023/10/03 02:46:11;;;;;;;;;;;21.20;82.10;;;21.32;50.64;98643.66;5032502;27;124093;-85
2023/10/03 02:48:38;;;;;;;;;;;21.10;82.30;;;21.25;50.92;98642.78;5014808;28;113292;-86
2023/10/03 02:51:06;;;;;;;;;;;21.00;82.20;;;21.21;50.67;98650.38;5025716;27;113624;-86
2023/10/03 02:53:32;;;;;;;;;;;21.00;82.40;;;21.19;50.80;98651.56;5026090;27;124648;-86
2023/10/03 02:55:59;;;;;;;;;;;21.00;82.60;;;21.18;50.86;98644.34;5027224;27;123859;-86
2023/10/03 02:58:25;;;;;;;;;;;21.00;82.70;;;21.18;50.90;98638.72;5022973;27;115299;-85
2023/10/03 03:00:57;;;;;;;;;;;21.00;83.00;;;21.19;51.12;98637.50;5026567;27;113793;-86
2023/10/03 03:03:34;;;;;;;;;;;21.00;83.10;;;21.16;50.83;98638.28;5027516;27;124194;-86
2023/10/03 03:06:03;;;;;;;;;;;21.00;83.20;;;21.15;50.87;98639.50;5044578;27;123669;-87
2023/10/03 03:08:30;;;;;;;;;;;20.90;83.20;;;21.15;50.87;98639.50;5030128;27;114190;-87
2023/10/03 03:10:58;;;;;;;;;;;20.90;83.30;;;21.21;51.17;98636.34;5031834;27;114239;-87
2023/10/03 03:13:26;;;;;;;;;;;20.90;83.50;;;21.25;50.81;98639.97;5029544;27;124481;-87
2023/10/03 03:16:04;;;;;;;;;;;21.00;83.60;;;21.29;51.04;98640.81;5029280;27;123933;-87
2023/10/03 03:18:40;;;;;;;;;;;21.00;83.60;;;21.31;50.89;98635.63;5028236;27;115433;-87
2023/10/03 03:21:14;;;;;;;;;;;21.00;83.50;;;21.35;50.48;98639.25;5042357;27;114616;-87
2023/10/03 03:23:55;;;;;;;;;;;21.00;83.50;;;21.37;50.68;98645.31;5028373;27;124446;-87
2023/10/03 03:26:22;;;;;;;;;;;21.00;83.50;;;21.39;50.50;98642.97;5029330;27;124066;-86
2023/10/03 03:28:50;;;;;;;;;;;21.00;83.40;;;21.41;50.24;98637.72;5030967;27;114372;-87
2023/10/03 03:31:25;;;;;;;;;;;21.00;83.30;;;21.44;50.35;98638.97;5028340;27;112199;-87
2023/10/03 03:33:55;;;;;;;;;;;21.10;83.40;;;21.47;50.22;98643.81;5023687;27;124073;-86
2023/10/03 03:36:29;;;;;;;;;;;21.10;83.40;;;21.49;50.02;98639.41;5028633;27;123558;-87
2023/10/03 03:39:05;;;;;;;;;;;21.10;83.40;;;21.51;50.00;98634.19;5048803;27;114231;-86
2023/10/03 03:41:34;;;;;;;;;;;21.10;83.20;;;21.54;49.63;98636.22;5029098;27;113281;-87
2023/10/03 03:44:00;;;;;;;;;;;21.10;83.00;;;21.57;49.47;98643.06;5016207;27;124456;-87
2023/10/03 03:46:29;;;;;;;;;;;21.20;82.90;;;21.59;49.39;98641.50;5030460;27;124575;-86
2023/10/03 03:48:58;;;;;;;;;;;21.20;82.80;;;21.61;49.44;98644.72;5063136;27;114421;-87
2023/10/03 03:51:26;;;;;;;;;;;21.20;82.50;;;21.63;49.33;98644.34;5020246;27;112874;-87
2023/10/03 03:53:53;;;;;;;;;;;22.60;83.70;;;21.67;49.27;98647.19;5030466;27;124278;-86
2023/10/03 03:56:19;;;;;;;;;;;21.30;82.50;;;21.67;49.30;98650.78;5028211;27;123399;-86
2023/10/03 03:58:45;;;;;;;;;;;21.30;82.40;;;21.67;49.37;98641.56;5030885;27;114706;-87
2023/10/03 04:01:17;;;;;;;;;;;21.30;82.40;;;21.65;49.51;98644.75;5031866;27;113342;-87
2023/10/03 04:03:54;;;;;;;;;;;21.30;82.30;;;21.62;49.23;98640.72;5030321;27;124270;-86
2023/10/03 04:06:20;;;;;;;;;;;21.30;82.20;;;21.62;49.07;98640.72;5060888;27;124074;-86
2023/10/03 04:08:49;;;;;;;;;;;21.30;82.10;;;21.62;49.22;98631.47;5031726;27;108681;-86
2023/10/03 04:11:16;;;;;;;;;;;21.30;82.10;;;21.64;48.80;98631.09;5023473;27;114948;-87
2023/10/03 04:13:53;;;;;;;;;;;21.30;81.80;;;21.65;48.99;98639.13;5017029;27;124298;-86
2023/10/03 04:16:26;;;;;;;;;;;21.30;81.60;;;21.67;48.70;98630.31;5037481;27;123004;-86
2023/10/03 04:18:53;;;;;;;;;;;21.30;81.40;;;21.68;48.34;98632.75;5033979;27;114467;-86
2023/10/03 04:21:19;;;;;;;;;;;21.30;81.20;;;21.70;48.59;98630.31;5056315;27;113881;-87
2023/10/03 04:23:49;;;;;;;;;;;21.30;81.10;;;21.72;48.47;98624.31;5023668;27;124876;-87
2023/10/03 04:26:16;;;;;;;;;;;21.30;81.00;;;21.74;48.54;98619.13;5016428;27;124056;-85
2023/10/03 04:28:42;;;;;;;;;;;21.40;81.10;;;21.76;48.07;98620.34;5030642;27;114580;-86
2023/10/03 04:31:09;;;;;;;;;;;21.40;80.90;;;21.78;48.18;98619.94;5029443;27;113679;-87
2023/10/03 04:33:35;;;;;;;;;;;21.40;80.70;;;21.80;47.74;98623.16;5032168;27;124276;-86
2023/10/03 04:36:04;;;;;;;;;;;21.40;80.60;;;21.79;47.82;98622.38;5030735;27;123276;-85
2023/10/03 04:38:34;;;;;;;;;;;21.40;80.40;;;21.80;47.64;98625.97;5028538;27;114465;-85
2023/10/03 04:41:00;;;;;;;;;;;21.40;80.30;;;21.81;47.46;98614.31;5013051;27;113199;-86
2023/10/03 04:43:31;;;;;;;;;;;21.40;80.10;;;21.82;47.53;98615.16;5030856;27;124293;-86
2023/10/03 04:45:57;;;;;;;;;;;21.40;79.80;;;21.82;47.44;98627.19;5036460;27;124089;-87
2023/10/03 04:48:24;;;;;;;;;;;21.40;79.60;;;21.84;46.94;98630.44;5062146;27;114337;-87
2023/10/03 04:50:50;;;;;;;;;;;21.40;79.30;;;21.84;46.75;98626.78;5028521;27;113743;-86
2023/10/03 04:53:18;;;;;;;;;;;21.40;79.00;;;21.86;47.08;98627.22;5031490;27;124887;-86
2023/10/03 04:55:45;;;;;;;;;;;21.50;78.90;;;21.88;46.44;98624.03;5047289;27;123573;-86
2023/10/03 04:58:12;;;;;;;;;;;21.50;78.70;;;21.90;46.34;98627.25;5028705;27;115274;-86
2023/10/03 05:00:39;;;;;;;;;;;21.50;78.40;;;21.93;46.54;98626.47;5029794;27;114195;-86
2023/10/03 05:03:09;;;;;;;;;;;21.50;78.30;;;21.93;45.99;98621.63;5029749;27;123986;-86
2023/10/03 05:05:35;;;;;;;;;;;21.50;78.00;;;21.95;46.06;98630.50;5053697;27;124162;-86
2023/10/03 05:08:04;;;;;;;;;;;21.50;77.80;;;21.98;46.21;98624.09;5030885;27;114644;-86
2023/10/03 05:10:33;;;;;;;;;;;21.60;77.80;;;22.00;45.91;98620.84;5027368;27;113786;-85
2023/10/03 05:12:59;;;;;;;;;;;21.60;77.50;;;22.00;45.90;98618.88;5027205;27;124360;-85
2023/10/03 05:15:30;;;;;;;;;;;21.60;77.20;;;22.03;45.78;98615.28;5034919;27;123979;-84
2023/10/03 05:17:56;;;;;;;;;;;21.60;77.10;;;22.06;45.66;98619.31;5023819;27;114567;-84
2023/10/03 05:20:34;;;;;;;;;;;21.60;77.00;;;22.08;45.71;98621.72;5035347;27;113754;-84
2023/10/03 05:23:04;;;;;;;;;;;19.80;75.20;;;22.09;45.48;98626.94;5026318;27;123315;-84
2023/10/03 05:25:36;;;;;;;;;;;21.70;76.90;;;22.11;45.50;98629.34;5033646;27;122829;-85
2023/10/03 05:28:04;;;;;;;;;;;21.70;76.70;;;22.11;45.36;98633.00;5068265;27;114474;-85
2023/10/03 05:30:33;;;;;;;;;;;21.70;76.50;;;22.11;45.27;98632.16;5036852;27;114168;-85
2023/10/03 05:32:59;;;;;;;;;;;21.70;76.40;;;22.11;45.34;98629.34;5022103;27;126338;-85
2023/10/03 05:35:26;;;;;;;;;;;21.70;76.30;;;22.11;45.14;98638.63;5031962;27;124072;-85
2023/10/03 05:37:55;;;;;;;;;;;21.70;76.20;;;22.12;45.25;98634.59;5040568;27;114573;-85
2023/10/03 05:40:22;;;;;;;;;;;21.80;76.20;;;22.14;45.20;98631.38;5035651;27;113683;-85
2023/10/03 05:42:49;;;;;;;;;;;21.80;76.10;;;22.16;44.97;98631.78;5014573;27;124306;-84
2023/10/03 05:45:17;;;;;;;;;;;21.80;76.10;;;22.18;45.13;98635.03;5077042;27;123996;-85
2023/10/03 05:47:52;;;;;;;;;;;21.80;76.00;;;22.20;44.96;98635.47;5073257;27;116060;-84
2023/10/03 05:50:23;;;;;;;;;;;21.80;75.70;;;22.21;44.69;98637.09;5035113;27;113824;-85
2023/10/03 05:52:52;;;;;;;;;;;21.80;75.60;;;22.23;44.77;98641.13;5060441;27;123976;-85
2023/10/03 05:55:18;;;;;;;;;;;21.80;75.50;;;22.26;44.83;98633.88;5035355;27;123199;-83
2023/10/03 05:57:45;;;;;;;;;;;21.80;75.30;;;22.28;44.78;98637.94;5027461;28;114523;-85
2023/10/03 06:00:19;;;;;;;;;;;21.90;75.30;;;22.32;44.56;98649.19;5027763;27;114381;-84
2023/10/03 06:02:47;;;;;;;;;;;21.90;75.10;;;22.33;44.56;98648.00;5024021;27;124742;-84
2023/10/03 06:05:15;;;;;;;;;;;21.90;75.00;;;22.36;44.24;98663.31;5032416;27;123494;-85
2023/10/03 06:07:41;;;;;;;;;;;21.90;74.80;;;22.36;44.42;98655.66;5024610;27;114549;-84
2023/10/03 06:10:10;;;;;;;;;;;22.00;74.80;;;22.37;44.44;98660.06;5029906;27;112760;-85
2023/10/03 06:12:37;;;;;;;;;;;22.00;74.60;;;22.43;44.12;98650.06;5029228;27;124187;-84
2023/10/03 06:15:05;;;;;;;;;;;22.00;74.40;;;22.50;43.87;98666.16;5022061;27;122831;-83
2023/10/03 06:17:34;;;;;;;;;;;22.00;74.40;;;22.56;44.02;98661.75;5026635;27;114492;-82
2023/10/03 06:20:01;;;;;;;;;;;22.10;74.20;;;22.62;43.91;98656.56;5028710;27;113785;-81
2023/10/03 06:22:27;;;;;;;;;;;22.20;74.20;;;22.69;43.64;98656.59;5025128;27;125000;-83
2023/10/03 06:24:57;;;;;;;;;;;22.20;74.10;;;22.75;43.57;98651.38;5028227;27;124064;-83
2023/10/03 06:27:26;;;;;;;;;;;22.30;74.20;;;22.82;43.70;98660.66;5058232;27;114631;-82
2023/10/03 06:29:53;;;;;;;;;;;22.30;74.00;;;22.87;43.31;98665.09;5031683;27;113864;-83
2023/10/03 06:32:19;;;;;;;;;;;22.40;73.60;;;22.88;43.13;98669.53;5056864;27;123499;-82
2023/10/03 06:34:48;;;;;;;;;;;22.40;73.10;;;22.90;42.88;98661.47;5035860;27;124049;-85
2023/10/03 06:37:16;;;;;;;;;;;22.40;73.00;;;22.94;42.80;98665.94;5062427;27;115633;-86
2023/10/03 06:39:45;;;;;;;;;;;22.50;72.90;;;23.02;42.85;98674.41;5018578;27;114442;-85
2023/10/03 06:42:11;;;;;;;;;;;22.50;72.80;;;23.08;42.50;98664.38;5069233;27;124855;-86
2023/10/03 06:44:43;;;;;;;;;;;22.60;72.80;;;23.14;42.56;98665.59;5063409;27;123915;-84
2023/10/03 06:47:10;;;;;;;;;;;22.60;72.70;;;23.22;42.59;98667.22;5062946;27;114506;-85
2023/10/03 06:49:37;;;;;;;;;;;22.70;72.50;;;23.29;42.35;98666.41;5036109;27;113237;-85
2023/10/03 06:52:03;;;;;;;;;;;22.70;72.50;;;23.36;42.37;98666.41;5048827;27;123970;-85
2023/10/03 06:54:32;;;;;;;;;;;22.80;72.40;;;23.43;42.46;98669.25;5037324;27;123957;-85
2023/10/03 06:56:58;;;;;;;;;;;22.80;72.40;;;23.52;42.03;98663.19;5049868;27;113571;-84
2023/10/03 06:59:27;;;;;;;;;;;23.00;72.60;;;23.60;41.72;98659.16;5031108;27;113885;-81
2023/10/03 07:01:53;;;;;;;;;;;23.00;72.00;;;23.68;41.74;98668.44;5032052;27;123234;-85
2023/10/03 07:04:20;;;;;;;;;;;23.10;71.70;;;23.75;41.72;98666.44;5035226;27;123846;-83
2023/10/03 07:06:50;;;;;;;;;;;23.20;71.40;;;23.83;41.40;98670.06;5033456;27;113803;-83
2023/10/03 07:09:17;;;;;;;;;;;23.20;71.30;;;23.91;41.15;98668.03;5057848;27;113714;-84
2023/10/03 07:11:47;;;;;;;;;;;23.30;71.10;;;24.00;41.46;98671.25;5035652;27;123840;-84
2023/10/03 07:14:14;;;;;;;;;;;23.40;70.90;;;24.09;40.76;98668.78;5034020;27;123872;-85
2023/10/03 07:16:41;;;;;;;;;;;23.50;70.80;;;24.19;41.01;98672.81;5042961;27;114724;-84
2023/10/03 07:19:10;;;;;;;;;;;23.50;70.60;;;24.28;40.53;98666.75;5033153;27;113789;-85
2023/10/03 07:21:37;;;;;;;;;;;23.60;70.50;;;24.37;40.76;98662.28;5019297;27;124440;-80
2023/10/03 07:24:06;;;;;;;;;;;23.70;70.60;;;24.48;40.81;98664.28;5063581;27;123846;-80
2023/10/03 07:26:35;;;;;;;;;;;23.80;70.80;;;24.60;40.63;98664.63;5033469;27;115118;-81
2023/10/03 07:29:02;;;;;;;;;;;23.90;70.30;;;24.71;40.42;98663.78;5034589;27;114986;-81
2023/10/03 07:31:32;;;;;;;;;;;24.00;70.00;;;24.79;39.83;98659.69;5030289;27;124414;-81
2023/10/03 07:33:58;;;;;;;;;;;24.10;69.50;;;24.84;39.59;98651.59;5030448;27;124084;-81
2023/10/03 07:36:25;;;;;;;;;;;24.20;69.00;;;24.92;39.55;98655.19;5034780;27;114272;-80
2023/10/03 07:38:51;;;;;;;;;;;24.30;69.10;;;25.03;39.77;98664.41;5071024;27;114161;-79
2023/10/03 07:41:19;;;;;;;;;;;24.40;69.00;;;25.12;39.02;98661.94;5029340;27;124379;-79
2023/10/03 07:43:48;;;;;;;;;;;24.50;68.50;;;25.21;38.68;98655.03;5033147;27;122951;-80
2023/10/03 07:46:22;;;;;;;;;;;24.50;67.50;;;25.27;38.25;98664.69;5058534;27;114325;-82
2023/10/03 07:48:52;;;;;;;;;;;24.60;68.10;;;25.32;38.13;98658.59;5063237;27;113855;-79
2023/10/03 07:51:19;;;;;;;;;;;24.70;67.20;;;25.39;38.39;98666.19;5054515;27;123700;-80
2023/10/03 07:53:47;;;;;;;;;;;24.70;66.50;;;25.44;37.98;98672.25;5016648;27;124088;-82
2023/10/03 07:56:29;;;;;;;;;;;24.80;66.10;;;25.48;38.12;98660.88;5016755;27;114213;-81
2023/10/03 07:59:02;;;;;;;;;;;24.90;65.80;;;25.54;37.66;98660.00;5030618;27;113775;-81
2023/10/03 08:01:29;;;;;;;;;;;24.90;65.50;;;25.60;37.10;98657.53;5012562;27;123849;-81
2023/10/03 08:03:57;;;;;;;;;;;25.00;65.00;;;25.65;36.99;98659.13;5054026;27;123314;-80
2023/10/03 08:06:25;;;;;;;;;;;25.10;64.80;;;25.70;37.05;98662.31;5040769;27;114580;-80
2023/10/03 08:08:59;;;;;;;;;;;25.10;64.50;;;25.76;37.40;98660.66;5029467;27;114161;-79
2023/10/03 08:11:32;;;;;;;;;;;25.20;64.20;;;25.82;36.77;98663.84;5029318;27;125006;-81
2023/10/03 08:14:00;;;;;;;;;;;25.20;64.10;;;25.90;37.09;98656.09;5029561;27;124123;-80
2023/10/03 08:16:27;;;;;;;;;;;25.30;64.00;;;25.97;36.89;98659.66;5058110;27;115224;-80
2023/10/03 08:19:01;;;;;;;;;;;25.40;63.60;;;26.06;36.53;98666.84;5016036;28;112818;-80
2023/10/03 08:21:28;;;;;;;;;;;25.40;63.00;;;26.11;36.35;98657.91;5011640;28;123336;-80
2023/10/03 08:23:55;;;;;;;;;;;25.50;62.70;;;26.18;35.86;98652.97;5024588;27;124266;-80
2023/10/03 08:26:25;;;;;;;;;;;25.50;62.40;;;26.26;35.42;98658.56;5029667;27;113797;-80
2023/10/03 08:29:05;;;;;;;;;;;25.60;61.80;;;26.32;35.77;98657.66;5062983;27;114186;-80
2023/10/03 08:31:32;;;;;;;;;;;25.70;61.80;;;26.38;35.16;98652.31;5016566;27;124220;-79
2023/10/03 08:34:01;;;;;;;;;;;25.80;61.20;;;26.41;35.72;98655.13;5065786;27;123909;-80
2023/10/03 08:36:28;;;;;;;;;;;25.80;61.30;;;26.47;35.67;98649.00;5031879;27;115699;-79
2023/10/03 08:39:13;;;;;;;;;;;25.90;61.20;;;26.52;35.01;98645.72;5049267;27;113784;-79
2023/10/03 08:41:53;;;;;;;;;;;26.00;60.80;;;26.53;35.02;98638.84;5022680;27;123433;-83
2023/10/03 08:44:23;;;;;;;;;;;26.00;60.80;;;26.56;35.31;98643.66;5063297;27;123988;-79
2023/10/03 08:46:58;;;;;;;;;;;26.00;60.50;;;26.61;35.51;98643.19;5060426;27;115112;-78
2023/10/03 08:49:28;;;;;;;;;;;26.10;60.60;;;26.65;35.51;98646.75;5027754;27;113382;-81
2023/10/03 08:52:01;;;;;;;;;;;26.10;60.30;;;26.70;35.26;98639.81;5011269;28;123733;-81
2023/10/03 08:54:36;;;;;;;;;;;26.20;60.50;;;26.74;35.50;98641.38;5025736;27;123925;-82
2023/10/03 08:57:04;;;;;;;;;;;24.70;59.50;;;26.79;35.17;98646.59;5028093;27;114455;-82
2023/10/03 08:59:33;;;;;;;;;;;26.30;60.50;;;26.83;35.26;98641.66;5020357;27;114247;-83
2023/10/03 09:02:05;;;;;;;;;;;26.30;60.50;;;26.82;35.17;98645.72;5032377;27;124229;-82
2023/10/03 09:04:38;;;;;;;;;;;26.40;60.30;;;26.87;35.38;98662.25;5057698;27;124308;-82
2023/10/03 09:07:10;;;;;;;;;;;26.40;60.30;;;26.93;35.30;98650.44;5042367;27;114380;-82
2023/10/03 09:09:43;;;;;;;;;;;26.40;60.40;;;26.97;35.73;98646.31;5020545;27;114536;-82
2023/10/03 09:12:12;;;;;;;;;;;26.50;60.40;;;27.05;35.24;98647.03;5055227;27;124074;-82
2023/10/03 09:14:41;;;;;;;;;;;27.60;61.00;;;27.10;35.02;98646.53;5026698;27;124099;-82
2023/10/03 09:17:21;;;;;;;;;;;26.60;60.10;;;27.15;35.15;98645.25;5032662;27;114459;-81
2023/10/03 09:19:53;;;;;;;;;;;26.70;60.20;;;27.22;35.23;98640.31;5021216;27;113874;-81
2023/10/03 09:22:36;;;;;;;;;;;26.70;60.30;;;27.26;35.28;98646.72;5015264;27;124270;-82
2023/10/03 09:25:07;;;;;;;;;;;26.80;60.00;;;27.31;34.87;98648.28;5047722;27;124650;-81
2023/10/03 09:27:36;;;;;;;;;;;26.90;60.00;;;27.33;35.26;98645.81;5061091;27;114494;-82
2023/10/03 09:30:22;;;;;;;;;;;26.80;60.00;;;27.37;35.21;98640.09;5029053;27;113674;-82
2023/10/03 09:32:54;;;;;;;;;;;27.00;59.90;;;27.38;35.15;98636.00;5055943;27;122732;-82
2023/10/03 09:35:21;;;;;;;;;;;27.00;59.80;;;27.42;34.87;98636.75;5058054;27;123658;-82
2023/10/03 09:37:56;;;;;;;;;;;27.00;59.60;;;27.45;35.18;98641.56;5015716;27;114566;-82
2023/10/03 09:40:22;;;;;;;;;;;27.10;59.70;;;27.47;35.46;98637.06;5027630;27;114236;-82
2023/10/03 09:42:49;;;;;;;;;;;27.10;59.90;;;27.54;34.84;98639.00;5040787;27;123864;-82
2023/10/03 09:45:24;;;;;;;;;;;27.10;59.80;;;27.60;35.45;98637.25;5033159;27;124466;-82
2023/10/03 09:47:58;;;;;;;;;;;27.20;59.90;;;27.65;35.18;98633.13;5027020;27;114372;-82
2023/10/03 09:50:28;;;;;;;;;;;27.20;59.90;;;27.71;35.09;98628.56;5066336;27;114236;-82
2023/10/03 09:53:01;;;;;;;;;;;27.30;59.80;;;27.75;35.09;98632.94;5067809;27;124197;-83
2023/10/03 09:55:44;;;;;;;;;;;27.30;59.80;;;27.83;35.24;98621.47;5009858;27;123905;-81
2023/10/03 09:58:10;;;;;;;;;;;27.40;59.80;;;27.89;34.92;98619.75;5043880;27;115119;-79
2023/10/03 10:00:40;;;;;;;;;;;27.50;59.80;;;27.97;35.17;98609.88;5024803;27;114395;-81
2023/10/03 10:03:09;;;;;;;;;;;27.50;59.80;;;28.06;35.05;98612.94;5011001;27;122612;-81
2023/10/03 10:05:36;;;;;;;;;;;27.60;59.80;;;28.14;35.04;98608.72;5049796;27;123883;-80
2023/10/03 10:08:11;;;;;;;;;;;27.70;59.80;;;28.23;34.84;98601.66;5013301;28;113356;-80
2023/10/03 10:10:41;;;;;;;;;;;27.70;59.80;;;28.28;34.90;98592.63;5029018;27;113918;-81
2023/10/03 10:13:21;;;;;;;;;;;27.80;59.70;;;28.30;34.70;98607.19;5027539;27;124791;-79
2023/10/03 10:16:11;;;;;;;;;;;27.80;59.50;;;28.32;34.84;98590.50;5014189;28;123347;-81
2023/10/03 10:18:44;;;;;;;;;;;27.80;59.40;;;28.36;34.54;98603.38;5028673;28;114698;-77
2023/10/03 10:21:31;;;;;;;;;;;27.90;59.00;;;28.39;34.34;98601.72;5025597;27;112973;-81
2023/10/03 10:24:15;;;;;;;;;;;27.90;58.80;;;28.40;34.53;98603.34;5024908;27;123448;-79
2023/10/03 10:27:05;;;;;;;;;;;28.00;58.80;;;28.43;34.32;98608.16;5027741;27;123437;-79
2023/10/03 10:29:35;;;;;;;;;;;28.00;58.80;;;28.46;34.43;98606.50;5041298;27;115410;-79
2023/10/03 10:32:17;;;;;;;;;;;28.00;59.00;;;28.48;34.55;98601.97;5029392;27;113720;-79
2023/10/03 10:34:52;;;;;;;;;;;28.00;58.60;;;28.51;34.29;98598.25;5026201;27;126351;-80
2023/10/03 10:37:18;;;;;;;;;;;28.10;58.50;;;28.52;34.44;98597.00;5025296;28;124621;-77
2023/10/03 10:39:54;;;;;;;;;;;28.10;58.60;;;28.54;34.32;98600.19;5026360;27;114403;-76
2023/10/03 10:42:30;;;;;;;;;;;28.10;58.40;;;28.58;34.18;98600.13;5028110;27;113184;-77
2023/10/03 10:45:20;;;;;;;;;;;28.20;58.50;;;28.60;34.54;98604.13;5029366;27;124089;-81
2023/10/03 10:47:50;;;;;;;;;;;28.20;58.50;;;28.67;34.10;98605.19;5054536;27;124122;-79
2023/10/03 10:50:21;;;;;;;;;;;28.20;58.50;;;28.70;34.16;98607.97;5053542;27;113779;-79
2023/10/03 10:52:57;;;;;;;;;;;28.30;58.60;;;28.76;34.02;98605.41;5024130;27;114683;-79
2023/10/03 10:55:26;;;;;;;;;;;28.30;58.40;;;28.78;34.16;98595.22;5065402;27;125074;-77
2023/10/03 10:58:12;;;;;;;;;;;28.40;58.30;;;28.80;34.42;98587.03;5010539;27;122787;-78
2023/10/03 11:00:39;;;;;;;;;;;28.30;58.40;;;28.88;34.24;98604.72;5026523;28;114469;-79
2023/10/03 11:03:09;;;;;;;;;;;28.40;58.50;;;28.97;34.38;98598.44;5028437;27;113535;-77
2023/10/03 11:05:49;;;;;;;;;;;28.50;58.50;;;29.08;33.90;98596.16;5022157;27;123325;-81
2023/10/03 11:08:17;;;;;;;;;;;28.60;58.60;;;29.23;34.15;98599.47;5034452;27;123623;-80
2023/10/03 11:10:54;;;;;;;;;;;28.70;58.60;;;29.33;34.20;98591.91;5009879;27;113322;-80
2023/10/03 11:13:21;;;;;;;;;;;28.80;58.30;;;29.38;33.80;98602.75;5040503;27;113689;-80
2023/10/03 11:15:54;;;;;;;;;;;28.90;58.20;;;29.45;34.06;98603.38;5046383;27;124214;-81
2023/10/03 11:18:28;;;;;;;;;;;28.90;58.10;;;29.49;34.04;98598.38;5028661;27;123972;-81
2023/10/03 11:20:56;;;;;;;;;;;29.00;58.00;;;29.50;33.65;98602.84;5034761;27;115126;-80
2023/10/03 11:23:26;;;;;;;;;;;29.00;57.90;;;29.49;33.98;98597.59;5033123;27;113835;-80
2023/10/03 11:25:53;;;;;;;;;;;29.10;58.10;;;29.49;33.98;98592.69;5042451;27;124286;-80
2023/10/03 11:28:20;;;;;;;;;;;29.10;58.20;;;29.50;34.24;98608.56;5031143;27;124024;-81